IFF weather

Iffley Airport
Queensland, Australia

Public forecast

Using degrees Celsius for public forecast. Weather courtesy of forecast.io.

METAR (pilot weather report)

Closest report is Normanton Airport, 73.5 nm (136.1 km) N. Retrieved 2019/04/22 23:00 UTC (59 minutes ago):

YNTN 222300Z AUTO 05010KT 9999 // NCD 28/21 Q1014

TAF (pilot weather forecast)

Closest forecast is Mount Isa Airport, 144.0 nm (266.8 km) SW. Retrieved 2019/04/22 18:03 UTC (6 hours ago):

TAF TAF YBMA 221638Z 2218/2306 15008KT CAVOK